Time;durP1;ratioP1;P1;durP2;ratioP2;P2;SDS_P1;SDS_P2;PMS_P1;PMS_P2;Temp;Humidity;BMP_temperature;BMP_pressure;BME280_temperature;BME280_humidity;BME280_pressure;Samples;Min_cycle;Max_cycle;Signal;HPM_P1;HPM_P2
2022/08/12 00:43:16;;;;;;;5.57;2.45;;;;;;;17.36;64.52;96440.81;5076103;28;20069;-75
2022/08/12 00:48:28;;;;;;;4.03;1.85;;;;;;;17.34;64.52;96438.38;5075312;28;20035;-75
2022/08/12 00:50:56;;;;;;;5.75;1.90;;;;;;;17.30;65.14;96442.41;5073391;28;20028;-75
2022/08/12 00:53:22;;;;;;;4.00;2.10;;;;;;;17.23;65.18;96440.75;5074601;28;20046;-75
2022/08/12 00:55:53;;;;;;;5.50;2.00;;;;;;;17.23;65.78;96449.53;5063149;28;20718;-75
2022/08/12 00:58:23;;;;;;;4.72;1.75;;;;;;;17.07;66.26;96441.88;5069315;28;20111;-75
2022/08/12 01:00:50;;;;;;;9.98;2.75;;;;;;;17.06;66.82;96446.38;5075699;28;20028;-75
2022/08/12 01:03:19;;;;;;;5.75;2.50;;;;;;;17.09;66.65;96445.97;5078363;28;20477;-75
2022/08/12 01:11:28;;;;;;;4.05;2.10;;;;;;;17.11;67.39;96451.94;5085136;28;20051;-76
2022/08/12 01:13:55;;;;;;;5.00;2.35;;;;;;;17.10;67.51;96444.97;5082122;28;20043;-75
2022/08/12 01:16:21;;;;;;;3.95;2.10;;;;;;;17.05;67.53;96444.72;5080420;28;20024;-75
2022/08/12 01:18:49;;;;;;;4.15;2.30;;;;;;;16.94;67.92;96437.31;5083353;28;20388;-75
2022/08/12 01:21:26;;;;;;;5.67;2.20;;;;;;;16.81;69.13;96442.53;5084962;28;20028;-75
2022/08/12 01:24:26;;;;;;;6.15;3.20;;;;;;;16.80;69.32;96428.44;5083932;28;20032;-75
2022/08/12 01:26:53;;;;;;;7.05;2.78;;;;;;;16.67;70.66;96429.13;5083189;28;20061;-75
2022/08/12 01:29:27;;;;;;;5.77;2.00;;;;;;;16.69;70.68;96427.06;5080885;28;20636;-75
2022/08/12 01:31:59;;;;;;;4.87;2.10;;;;;;;16.70;70.92;96430.56;5074923;28;20040;-75
2022/08/12 01:34:32;;;;;;;6.87;2.23;;;;;;;16.68;71.25;96436.06;5075337;28;20741;-75
2022/08/12 01:36:59;;;;;;;;;;;;;;;16.50;72.75;96431.22;5078187;28;20509;-75
2022/08/12 01:39:30;;;;;;;6.10;2.37;;;;;;;16.47;73.33;96426.28;5076641;28;19920;-75
2022/08/12 01:42:04;;;;;;;6.07;2.27;;;;;;;16.48;73.02;96432.41;5075603;28;20033;-75
2022/08/12 01:44:31;;;;;;;5.07;2.57;;;;;;;16.46;72.97;96432.63;5075366;28;20534;-75
2022/08/12 01:47:08;;;;;;;3.40;2.03;;;;;;;16.28;74.66;96432.25;5074634;28;20028;-75
2022/08/12 01:49:49;;;;;;;5.30;2.70;;;;;;;16.29;75.08;96428.56;5072950;28;20039;-75
2022/08/12 01:52:29;;;;;;;3.17;1.93;;;;;;;16.20;75.70;96424.44;5074361;28;20040;-75
2022/08/12 01:54:57;;;;;;;3.93;2.10;;;;;;;16.16;75.75;96420.47;5073833;28;20048;-75
2022/08/12 01:57:28;;;;;;;7.80;2.10;;;;;;;16.14;75.92;96414.56;5074171;28;20527;-75
2022/08/12 02:00:05;;;;;;;4.00;2.40;;;;;;;16.08;76.65;96413.47;5079931;28;20098;-75
2022/08/12 02:02:51;;;;;;;6.22;2.47;;;;;;;16.04;77.25;96417.53;5084721;28;20453;-75
2022/08/12 02:12:07;;;;;;;5.13;2.20;;;;;;;16.06;77.68;96422.63;5089935;28;20028;-75
2022/08/12 02:15:11;;;;;;;4.70;2.20;;;;;;;15.98;78.32;96415.63;5085530;28;20036;-75
2022/08/12 02:18:03;;;;;;;7.67;2.93;;;;;;;15.82;79.16;96415.84;5087591;28;20027;-75
2022/08/12 02:20:37;;;;;;;4.20;2.37;;;;;;;15.83;79.66;96412.19;5091485;28;20028;-75
2022/08/12 02:23:06;;;;;;;4.23;2.17;;;;;;;15.62;81.67;96407.66;5089780;28;20043;-75
2022/08/12 02:25:36;;;;;;;6.60;2.27;;;;;;;15.65;81.46;96404.63;5087406;28;20115;-75
2022/08/12 02:28:03;;;;;;;4.97;2.70;;;;;;;15.43;83.94;96412.53;5089721;28;20024;-75
2022/08/12 02:30:31;;;;;;;7.20;2.60;;;;;;;15.46;83.96;96406.03;5085719;28;20036;-74
2022/08/12 02:33:01;;;;;;;4.40;2.20;;;;;;;15.49;83.52;96403.00;5075823;28;20033;-75
2022/08/12 02:35:29;;;;;;;4.17;2.17;;;;;;;15.48;84.03;96398.72;5077824;28;20054;-75
2022/08/12 02:37:58;;;;;;;3.90;2.40;;;;;;;15.41;84.25;96400.47;5077969;28;20036;-76
2022/08/12 02:40:25;;;;;;;4.17;2.37;;;;;;;15.51;84.04;96401.81;5080567;28;20057;-75
2022/08/12 02:42:59;;;;;;;5.17;2.20;;;;;;;15.53;83.98;96396.34;5082538;28;20065;-75
2022/08/12 02:45:38;;;;;;;5.67;2.30;;;;;;;15.66;83.28;96396.53;5079605;28;20068;-75
2022/08/12 02:48:13;;;;;;;3.37;1.93;;;;;;;15.59;83.94;96395.56;5078283;28;20028;-75
2022/08/12 02:50:46;;;;;;;3.33;2.03;;;;;;;15.57;84.23;96387.81;5078192;28;20111;-75
2022/08/12 02:53:13;;;;;;;4.90;2.30;;;;;;;15.56;83.90;96388.84;5081400;28;20106;-75
2022/08/12 02:55:38;;;;;;;6.37;2.50;;;;;;;15.46;85.39;96385.66;5080554;28;20521;-75
2022/08/12 02:58:08;;;;;;;4.20;2.23;;;;;;;15.52;85.46;96382.25;5081454;28;20039;-75
2022/08/12 03:00:36;;;;;;;3.83;2.27;;;;;;;15.45;85.25;96391.94;5082740;28;21294;-75
2022/08/12 03:03:08;;;;;;;5.40;2.07;;;;;;;15.35;86.61;96388.78;5088459;28;20097;-75
2022/08/12 03:05:45;;;;;;;3.93;2.10;;;;;;;15.37;86.03;96396.56;5087895;28;20040;-75
2022/08/12 03:08:14;;;;;;;6.37;2.37;;;;;;;15.37;86.44;96393.91;5086711;28;20111;-75
2022/08/12 03:10:44;;;;;;;4.40;2.53;;;;;;;15.36;86.36;96394.88;5075214;28;20031;-75
2022/08/12 03:13:14;;;;;;;6.37;2.50;;;;;;;15.21;87.53;96394.91;5087699;28;20465;-75
2022/08/12 03:15:40;;;;;;;3.63;2.20;;;;;;;15.17;88.53;96391.81;5083948;28;20041;-75
2022/08/12 03:18:16;;;;;;;8.43;2.97;;;;;;;15.18;88.83;96392.63;5086995;28;20047;-75
2022/08/12 03:20:42;;;;;;;3.47;2.00;;;;;;;15.18;88.64;96398.75;5085906;28;20044;-75
2022/08/12 03:23:13;;;;;;;5.77;2.50;;;;;;;15.18;88.51;96396.09;5087234;28;20024;-75
2022/08/12 03:25:40;;;;;;;3.00;2.07;;;;;;;15.00;89.84;96400.97;5087670;28;20063;-76
2022/08/12 03:28:12;;;;;;;3.80;2.40;;;;;;;15.07;89.95;96394.75;5087805;28;20028;-75
2022/08/12 03:30:42;;;;;;;4.93;2.63;;;;;;;14.89;91.03;96398.75;5081608;28;20063;-75
2022/08/12 03:33:11;;;;;;;3.87;2.40;;;;;;;14.92;91.55;96395.75;5076593;28;20035;-75
2022/08/12 03:35:41;;;;;;;6.00;2.63;;;;;;;15.01;91.08;96402.59;5076277;28;20126;-75
2022/08/12 03:38:10;;;;;;;4.70;2.60;;;;;;;15.01;90.53;96402.59;5079502;28;20085;-75
2022/08/12 04:00:46;;;;;;;5.07;2.50;;;;;;;14.78;92.39;96407.97;5084551;28;20421;-75
2022/08/12 04:05:56;;;;;;;5.17;2.57;;;;;;;14.76;92.35;96410.81;5087446;28;20035;-74
2022/08/12 04:08:24;;;;;;;2.87;1.90;;;;;;;14.79;92.27;96412.28;5089780;28;20036;-74
2022/08/12 04:13:36;;;;;;;3.97;2.63;;;;;;;14.76;92.89;96416.09;5086191;28;20482;-75
2022/08/12 04:16:03;;;;;;;4.83;2.43;;;;;;;14.71;93.02;96413.16;5061812;28;20045;-75
2022/08/12 04:18:30;;;;;;;5.03;2.30;;;;;;;14.75;93.07;96418.91;5085846;28;20063;-75
2022/08/12 04:20:57;;;;;;;4.47;2.27;;;;;;;14.67;93.74;96411.88;5078884;28;20949;-75
2022/08/12 04:23:24;;;;;;;4.87;2.50;;;;;;;14.75;93.10;96408.31;5080460;28;20462;-75
2022/08/12 04:25:50;;;;;;;3.77;2.20;;;;;;;14.76;93.69;96410.81;5086126;28;20020;-75
2022/08/12 04:28:24;;;;;;;6.70;2.53;;;;;;;14.78;92.61;96406.13;5080941;28;20430;-74
2022/08/12 04:30:50;;;;;;;6.43;2.93;;;;;;;14.66;93.38;96407.59;5081966;28;20094;-75
2022/08/12 04:33:17;;;;;;;9.43;3.80;;;;;;;14.76;93.55;96410.00;5072227;28;20117;-74
2022/08/12 04:35:43;;;;;;;6.37;2.80;;;;;;;14.81;92.30;96397.84;5075787;28;20400;-74
2022/08/12 04:38:10;;;;;;;11.47;6.27;;;;;;;14.82;93.04;96410.09;5077226;28;20131;-74
2022/08/12 04:40:36;;;;;;;7.33;3.77;;;;;;;14.84;93.76;96410.72;5077759;28;20067;-74
2022/08/12 04:43:02;;;;;;;6.03;3.70;;;;;;;14.88;93.58;96413.00;5077637;28;20055;-75
2022/08/12 04:45:29;;;;;;;4.27;2.63;;;;;;;14.95;92.50;96413.91;5075393;28;20028;-74
2022/08/12 04:47:55;;;;;;;3.63;2.60;;;;;;;14.93;92.27;96410.66;5076862;28;20047;-74
2022/08/12 04:50:23;;;;;;;4.97;2.77;;;;;;;14.99;92.49;96416.03;5077227;28;20059;-74
2022/08/12 04:52:59;;;;;;;4.47;2.30;;;;;;;15.06;92.47;96421.44;5075760;28;20481;-74
2022/08/12 04:55:28;;;;;;;14.60;3.40;;;;;;;15.33;92.08;96418.13;5076197;28;20113;-77
2022/08/12 04:57:58;;;;;;;4.93;2.13;;;;;;;15.93;88.94;96418.84;5093160;28;20081;-78
2022/08/12 05:00:24;;;;;;;4.40;2.03;;;;;;;16.19;85.01;96405.00;5078157;28;20044;-75
2022/08/12 05:02:51;;;;;;;6.37;2.70;;;;;;;16.11;84.39;96405.16;5081352;28;20081;-74
2022/08/12 05:05:19;;;;;;;3.87;2.20;;;;;;;16.05;84.48;96405.91;5076265;28;20058;-74
2022/08/12 05:07:48;;;;;;;4.40;2.20;;;;;;;16.04;85.21;96414.88;5082233;28;20114;-74
2022/08/12 05:10:20;;;;;;;5.53;2.30;;;;;;;15.97;85.83;96404.19;5082923;28;20036;-75
2022/08/12 05:12:51;;;;;;;5.23;2.80;;;;;;;15.94;85.07;96409.88;5081366;28;20160;-74
2022/08/12 05:15:17;;;;;;;4.23;2.50;;;;;;;15.89;86.60;96411.44;5084490;28;20042;-74
2022/08/12 05:17:43;;;;;;;5.30;2.40;;;;;;;16.02;86.22;96415.03;5080048;28;20489;-74
2022/08/12 05:20:10;;;;;;;4.03;2.40;;;;;;;16.31;84.04;96410.63;5085081;28;20032;-74
2022/08/12 05:22:37;;;;;;;4.87;2.73;;;;;;;16.10;84.62;96414.13;5081448;28;20422;-74
2022/08/12 05:25:05;;;;;;;8.80;3.33;;;;;;;16.32;85.03;96411.44;5084461;28;20117;-75
2022/08/12 05:27:34;;;;;;;4.47;2.67;;;;;;;16.52;83.26;96417.75;5083323;28;20036;-75
2022/08/12 05:29:59;;;;;;;4.33;2.60;;;;;;;16.67;81.46;96412.38;5075689;28;20038;-74
2022/08/12 05:32:27;;;;;;;4.17;2.30;;;;;;;16.82;80.64;96417.59;5080712;28;20040;-75
2022/08/12 05:34:53;;;;;;;4.60;2.47;;;;;;;17.01;79.01;96410.78;5072556;28;20036;-74
2022/08/12 05:37:21;;;;;;;5.13;2.03;;;;;;;17.16;78.32;96414.94;5073310;28;20036;-74
2022/08/12 05:39:47;;;;;;;7.73;2.70;;;;;;;17.37;77.04;96418.53;5075128;28;20054;-74
2022/08/12 05:42:13;;;;;;;5.30;2.20;;;;;;;17.31;77.79;96422.81;5075444;28;20073;-74
2022/08/12 05:44:38;;;;;;;3.73;2.30;;;;;;;17.81;75.54;96422.66;5078691;28;20209;-74
2022/08/12 05:47:05;;;;;;;4.60;2.13;;;;;;;17.94;73.95;96412.03;5078739;28;20059;-74
2022/08/12 05:49:33;;;;;;;4.70;2.83;;;;;;;17.90;72.47;96416.09;5063310;28;20028;-74
2022/08/12 05:51:59;;;;;;;5.17;2.50;;;;;;;18.19;72.12;96424.78;5072937;28;20052;-74
2022/08/12 05:54:25;;;;;;;5.60;2.43;;;;;;;18.37;70.08;96420.47;5078609;28;20031;-75
2022/08/12 05:56:50;;;;;;;5.33;2.13;;;;;;;18.30;70.93;96424.16;5077633;28;20386;-75
2022/08/12 05:59:16;;;;;;;5.57;2.53;;;;;;;18.46;69.11;96426.44;5078208;28;20033;-74
2022/08/12 06:01:42;;;;;;;4.55;2.22;;;;;;;18.58;69.21;96424.81;5062759;28;20055;-73
2022/08/12 06:04:09;;;;;;;5.80;2.83;;;;;;;18.61;69.62;96424.41;5086167;28;20032;-74
2022/08/12 06:06:38;;;;;;;6.20;2.73;;;;;;;18.89;67.53;96419.91;5083644;28;20099;-74
2022/08/12 06:09:03;;;;;;;5.40;2.40;;;;;;;18.82;66.89;96425.25;5083030;28;20102;-74
2022/08/12 06:11:29;;;;;;;6.43;2.75;;;;;;;19.08;65.37;96425.22;5085741;28;20119;-73
2022/08/12 06:13:57;;;;;;;3.53;2.08;;;;;;;18.97;67.42;96422.34;5088199;28;20878;-74
2022/08/12 06:16:23;;;;;;;7.13;2.70;;;;;;;19.09;66.92;96426.03;5083947;28;20028;-74
2022/08/12 06:18:50;;;;;;;3.88;1.92;;;;;;;20.04;60.59;96417.50;5084067;28;20027;-74
2022/08/12 06:21:18;;;;;;;5.65;2.17;;;;;;;20.21;59.30;96423.97;5086353;28;20942;-74
2022/08/12 06:23:44;;;;;;;6.88;2.53;;;;;;;20.45;58.12;96425.84;5086202;28;20881;-74
2022/08/12 06:26:14;;;;;;;4.97;2.33;;;;;;;20.39;58.17;96421.38;5083660;28;20527;-74
2022/08/12 06:28:43;;;;;;;6.38;2.10;;;;;;;20.91;56.57;96424.69;5082696;28;20051;-74
2022/08/12 06:31:15;;;;;;;4.90;3.08;;;;;;;21.01;55.02;96421.50;5084700;28;20076;-74
2022/08/12 06:33:43;;;;;;;6.45;2.03;;;;;;;20.97;55.18;96424.84;5076058;28;20267;-74
2022/08/12 06:36:13;;;;;;;5.78;1.95;;;;;;;21.01;55.08;96420.69;5079437;28;20016;-74
2022/08/12 06:38:40;;;;;;;4.68;2.30;;;;;;;21.42;53.35;96420.91;5075502;28;20039;-74
2022/08/12 06:43:52;;;;;;;4.78;2.28;;;;;;;21.93;51.74;96418.03;5077710;28;20432;-74
2022/08/12 06:46:22;;;;;;;6.25;2.45;;;;;;;21.60;52.43;96424.63;5078174;28;20749;-75
2022/08/12 06:48:50;;;;;;;8.45;2.10;;;;;;;22.20;51.45;96422.03;5075865;28;20032;-74
2022/08/12 06:51:18;;;;;;;5.75;2.95;;;;;;;22.03;52.18;96418.31;5093675;28;20034;-74
2022/08/12 06:53:44;;;;;;;5.82;2.38;;;;;;;22.07;50.01;96416.81;5076532;28;20047;-74
2022/08/12 06:56:10;;;;;;;5.68;2.03;;;;;;;22.39;49.77;96419.28;5077552;28;20472;-75
2022/08/12 06:58:37;;;;;;;4.93;2.35;;;;;;;22.18;49.68;96412.56;5073790;28;20783;-75
2022/08/12 07:01:04;;;;;;;5.63;2.20;;;;;;;22.40;48.70;96421.75;5078985;28;20052;-73
2022/08/12 07:03:30;;;;;;;4.65;2.05;;;;;;;23.13;46.11;96414.38;5083294;28;20016;-74
2022/08/12 07:05:59;;;;;;;5.57;2.30;;;;;;;23.36;45.44;96417.03;5083152;28;20431;-74
2022/08/12 07:08:27;;;;;;;4.00;2.00;;;;;;;23.48;45.46;96417.03;5083863;28;20027;-74
2022/08/12 07:11:00;;;;;;;4.45;2.35;;;;;;;23.61;44.40;96416.75;5086747;28;20024;-74
2022/08/12 07:13:27;;;;;;;;;;;;;;;24.22;43.07;96409.91;5085168;28;20089;-74
2022/08/12 07:15:55;;;;;;;4.00;2.05;;;;;;;23.69;44.08;96412.91;5087093;28;19912;-74
2022/08/12 07:18:26;;;;;;;3.45;1.95;;;;;;;24.05;44.06;96410.94;5087020;28;20035;-74
2022/08/12 07:20:52;;;;;;;3.40;2.08;;;;;;;24.07;43.17;96404.25;5086396;28;20808;-74
2022/08/12 07:23:18;;;;;;;5.25;2.10;;;;;;;24.15;43.10;96409.25;5086186;28;20107;-74
2022/08/12 07:25:44;;;;;;;3.20;1.95;;;;;;;23.69;44.06;96407.53;5087298;28;20627;-74
2022/08/12 07:28:16;;;;;;;2.67;2.00;;;;;;;23.76;43.46;96406.34;5087250;28;20057;-74
2022/08/12 07:30:43;;;;;;;4.57;2.65;;;;;;;24.02;42.71;96406.84;5083219;28;20721;-74
2022/08/12 07:33:11;;;;;;;4.15;2.13;;;;;;;24.56;41.60;96396.53;5078227;28;20059;-74
2022/08/12 07:35:42;;;;;;;5.85;2.00;;;;;;;24.40;42.06;96402.69;5077013;28;20036;-74
2022/08/12 07:38:25;;;;;;;4.05;1.77;;;;;;;24.42;41.41;96400.59;5073836;28;20032;-74
2022/08/12 07:41:09;;;;;;;5.30;2.28;;;;;;;25.74;38.55;96385.56;5075613;28;20089;-75
2022/08/12 07:43:41;;;;;;;4.15;2.13;;;;;;;25.00;39.51;96383.22;5079033;28;20078;-75
2022/08/12 07:46:09;;;;;;;4.38;2.28;;;;;;;24.73;40.22;96382.28;5075857;28;20035;-75
2022/08/12 07:48:39;;;;;;;2.55;1.58;;;;;;;25.53;37.67;96389.09;5080121;28;20040;-74
2022/08/12 07:51:06;;;;;;;3.95;1.92;;;;;;;26.18;36.49;96390.09;5079751;28;20040;-74
2022/08/12 07:53:33;;;;;;;3.47;1.90;;;;;;;25.27;37.76;96391.44;5077336;28;20127;-74
2022/08/12 07:56:00;;;;;;;3.80;1.77;;;;;;;24.81;38.64;96398.00;5074108;28;20111;-74
2022/08/12 07:58:25;;;;;;;3.80;1.60;;;;;;;25.59;36.91;96396.97;5077926;28;20037;-74
2022/08/12 08:00:59;;;;;;;4.78;2.00;;;;;;;25.48;36.75;96391.72;5076633;28;20066;-75
2022/08/12 08:03:26;;;;;;;5.70;1.80;;;;;;;25.90;36.45;96396.56;5069539;28;20031;-75
2022/08/12 08:05:52;;;;;;;6.65;2.10;;;;;;;26.00;35.99;96392.09;5083687;28;20036;-75
2022/08/12 08:08:21;;;;;;;5.70;2.03;;;;;;;26.99;34.53;96385.41;5073781;28;20400;-75
2022/08/12 08:10:49;;;;;;;4.47;2.15;;;;;;;26.91;33.89;96391.31;5093486;28;20393;-75
2022/08/12 08:13:15;;;;;;;3.67;1.90;;;;;;;27.97;32.72;96397.56;5083896;28;20043;-75
2022/08/12 08:15:44;;;;;;;3.30;2.00;;;;;;;27.81;33.10;96395.91;5083333;28;20058;-75
2022/08/12 08:18:13;;;;;;;5.03;2.03;;;;;;;27.60;33.00;96397.66;5085662;28;20937;-75
2022/08/12 08:20:45;;;;;;;6.38;2.40;;;;;;;27.37;33.20;96383.53;5082687;28;20043;-71
2022/08/12 08:23:17;;;;;;;5.90;2.13;;;;;;;27.94;32.78;96390.81;5078685;28;20122;-74
2022/08/12 08:25:44;;;;;;;4.72;2.17;;;;;;;28.01;32.02;96390.56;5095251;28;20035;-75
2022/08/12 08:28:13;;;;;;;5.38;2.33;;;;;;;27.63;32.41;96397.97;5083324;28;20032;-78
2022/08/12 08:30:42;;;;;;;5.28;1.88;;;;;;;27.26;32.95;96390.75;5080715;28;20060;-74
2022/08/12 08:33:09;;;;;;;5.22;2.10;;;;;;;27.73;32.17;96392.59;5076413;28;20037;-74
2022/08/12 08:35:39;;;;;;;3.42;1.85;;;;;;;27.55;32.15;96397.66;5070403;28;20043;-74
2022/08/12 08:38:16;;;;;;;3.05;1.83;;;;;;;27.23;32.61;96395.84;5072503;28;21800;-74
2022/08/12 08:43:32;;;;;;;5.05;1.88;;;;;;;26.79;33.35;96394.19;5078123;28;20020;-74
2022/08/12 08:46:04;;;;;;;6.10;1.67;;;;;;;26.28;33.97;96392.91;5075200;28;20067;-74
2022/08/12 08:48:32;;;;;;;5.07;1.98;;;;;;;27.90;31.57;96397.81;5075074;28;20716;-74
2022/08/12 08:50:58;;;;;;;4.53;1.98;;;;;;;28.08;31.57;96395.72;5075079;28;20036;-74
2022/08/12 08:53:24;;;;;;;2.47;1.73;;;;;;;27.74;31.55;96388.00;5075848;28;20097;-74
2022/08/12 08:55:52;;;;;;;3.45;1.90;;;;;;;26.77;33.05;96395.53;5075468;28;20024;-75
2022/08/12 08:58:20;;;;;;;2.40;1.60;;;;;;;27.45;32.12;96395.72;5077489;28;20402;-74
2022/08/12 09:00:50;;;;;;;3.63;1.95;;;;;;;27.24;31.32;96389.41;5077067;28;20055;-74
2022/08/12 09:03:17;;;;;;;3.90;2.03;;;;;;;26.72;32.71;96392.78;5063816;28;20115;-74
2022/08/12 09:05:43;;;;;;;4.13;2.10;;;;;;;26.74;32.52;96393.34;5082513;28;20062;-74
2022/08/12 09:08:09;;;;;;;2.53;1.58;;;;;;;27.69;30.38;96382.56;5083098;28;21731;-73
2022/08/12 09:10:36;;;;;;;5.05;1.83;;;;;;;28.18;30.62;96387.63;5083859;28;20031;-74
2022/08/12 09:15:47;;;;;;;4.45;1.90;;;;;;;27.79;31.23;96381.84;5084679;28;20063;-74
2022/08/12 09:18:14;;;;;;;3.15;1.63;;;;;;;29.32;29.38;96371.91;5085844;28;20456;-74
2022/08/12 09:20:41;;;;;;;3.65;1.60;;;;;;;29.31;29.50;96380.31;5084649;28;20035;-75
2022/08/12 09:23:11;;;;;;;4.63;2.10;;;;;;;27.31;31.20;96389.16;5085507;28;20508;-73
2022/08/12 09:25:38;;;;;;;3.33;1.73;;;;;;;26.80;31.36;96386.91;5083389;28;20604;-74
2022/08/12 09:28:09;;;;;;;2.88;1.60;;;;;;;27.60;31.01;96389.56;5086782;28;20119;-74
2022/08/12 09:30:36;;;;;;;4.90;2.10;;;;;;;28.62;29.76;96381.75;5082983;28;20065;-73
2022/08/12 09:33:01;;;;;;;3.70;1.50;;;;;;;28.12;30.15;96394.09;5075579;28;20032;-72
2022/08/12 09:35:42;;;;;;;3.25;1.75;;;;;;;27.68;30.59;96397.97;5075053;28;20501;-72
2022/08/12 09:38:16;;;;;;;3.97;1.88;;;;;;;28.19;30.69;96384.63;5075306;28;20115;-75
2022/08/12 09:40:43;;;;;;;2.42;1.50;;;;;;;27.92;30.51;96384.84;5073102;28;20998;-76
2022/08/12 09:45:56;;;;;;;4.65;2.13;;;;;;;29.39;28.28;96366.22;5073396;28;20037;-76
2022/08/12 09:48:21;;;;;;;5.10;1.92;;;;;;;28.64;29.14;96368.75;5074022;28;20032;-75
2022/08/12 09:50:49;;;;;;;3.78;1.70;;;;;;;28.52;29.27;96379.03;5073647;28;20027;-74
2022/08/12 09:53:23;;;;;;;5.95;1.95;;;;;;;29.50;27.60;96367.78;5075595;28;20594;-74
2022/08/12 09:55:57;;;;;;;6.47;2.50;;;;;;;30.11;26.49;96352.34;5073466;28;20032;-76
2022/08/12 09:58:27;;;;;;;4.95;2.38;;;;;;;28.53;28.23;96375.22;5070338;28;20036;-75
2022/08/12 10:01:01;;;;;;;3.25;1.80;;;;;;;28.14;28.70;96365.72;5076784;28;20926;-75
2022/08/12 10:03:36;;;;;;;6.05;1.77;;;;;;;28.56;28.51;96367.38;5082488;28;20051;-75
2022/08/12 10:06:05;;;;;;;5.03;1.80;;;;;;;29.99;26.95;96345.38;5069096;28;20028;-74
2022/08/12 10:08:33;;;;;;;2.80;1.65;;;;;;;29.49;27.95;96354.53;5083369;28;20035;-76
2022/08/12 10:13:48;;;;;;;4.07;1.88;;;;;;;29.47;27.67;96351.28;5080715;28;20123;-75
2022/08/12 10:16:22;;;;;;;3.88;1.60;;;;;;;29.33;27.79;96348.34;5081488;28;20043;-73
2022/08/12 10:18:49;;;;;;;6.90;1.80;;;;;;;29.16;27.89;96351.38;5083961;28;20127;-75
2022/08/12 10:21:17;;;;;;;3.53;1.80;;;;;;;29.67;27.40;96345.81;5065738;28;20051;-74
2022/08/12 10:23:45;;;;;;;9.00;1.58;;;;;;;29.08;27.83;96338.41;5059889;28;20119;-74
2022/08/12 10:31:53;;;;;;;4.80;1.80;;;;;;;29.63;27.05;96333.91;5087673;28;20115;-75
2022/08/12 10:34:21;;;;;;;5.40;1.88;;;;;;;29.00;27.51;96322.72;5085713;28;20038;-75
2022/08/12 10:36:48;;;;;;;3.50;2.00;;;;;;;29.23;27.79;96324.81;5085677;28;20038;-75
2022/08/12 10:39:17;;;;;;;3.85;1.90;;;;;;;29.92;26.90;96325.09;5086676;28;20047;-74
2022/08/12 10:44:29;;;;;;;2.22;1.63;;;;;;;29.93;26.49;96319.38;5101177;28;20024;-75
2022/08/12 10:46:56;;;;;;;2.30;1.50;;;;;;;29.70;26.81;96315.44;5083855;28;20070;-75
2022/08/12 10:49:27;;;;;;;3.10;1.88;;;;;;;29.75;26.94;96309.19;5083138;28;20436;-75
2022/08/12 10:51:54;;;;;;;3.08;1.70;;;;;;;30.42;25.78;96312.28;5098483;28;20560;-75
2022/08/12 10:54:21;;;;;;;4.10;1.92;;;;;;;30.17;26.01;96321.38;5101650;28;20044;-75
2022/08/12 10:56:48;;;;;;;3.28;1.60;;;;;;;30.61;25.27;96315.88;5103564;28;20062;-74
2022/08/12 10:59:20;;;;;;;3.15;1.52;;;;;;;30.10;25.19;96310.03;5086658;28;20036;-75
2022/08/12 11:01:48;;;;;;;2.78;1.20;;;;;;;30.50;25.23;96306.22;5088417;28;20032;-75
2022/08/12 11:04:13;;;;;;;3.50;1.92;;;;;;;30.21;26.19;96309.69;5078202;28;20040;-74
2022/08/12 11:07:02;;;;;;;7.43;2.13;;;;;;;30.66;25.62;96306.91;5082737;28;20040;-75
2022/08/12 11:09:31;;;;;;;2.72;1.55;;;;;;;29.21;27.21;96299.91;5085156;28;20134;-74
2022/08/12 11:12:05;;;;;;;3.72;1.60;;;;;;;29.42;26.49;96303.34;5078480;28;20036;-75
2022/08/12 11:14:35;;;;;;;3.45;1.77;;;;;;;28.65;27.39;96298.13;5087304;28;20039;-74
2022/08/12 11:17:07;;;;;;;3.58;1.83;;;;;;;28.46;27.77;96304.38;5080758;28;20066;-74
2022/08/12 11:19:35;;;;;;;2.95;1.50;;;;;;;29.36;26.73;96291.72;5084762;28;20032;-74
2022/08/12 11:22:02;;;;;;;4.97;1.77;;;;;;;29.74;26.95;96283.16;5085678;28;20050;-75
2022/08/12 11:24:28;;;;;;;4.30;1.55;;;;;;;30.59;25.32;96279.28;5087232;28;20139;-75
2022/08/12 11:26:54;;;;;;;3.80;1.92;;;;;;;30.96;25.34;96284.09;5085178;28;20115;-74
2022/08/12 11:29:22;;;;;;;3.55;2.03;;;;;;;31.11;25.66;96278.47;5086104;28;20040;-75
2022/08/12 11:31:48;;;;;;;3.05;1.75;;;;;;;30.98;24.88;96282.69;5085266;28;20051;-74
2022/08/12 11:34:15;;;;;;;2.90;1.42;;;;;;;31.22;24.87;96281.88;5078718;28;20503;-74
2022/08/12 11:36:55;;;;;;;1.85;1.35;;;;;;;29.12;26.56;96283.41;5077735;28;20036;-74
2022/08/12 11:39:21;;;;;;;2.90;1.50;;;;;;;28.56;27.37;96285.41;5076987;28;20035;-74
2022/08/12 11:41:47;;;;;;;2.80;1.42;;;;;;;28.56;27.00;96288.13;5054837;28;20489;-74
2022/08/12 11:44:14;;;;;;;6.45;1.60;;;;;;;28.56;27.16;96280.81;5072110;28;20073;-75
2022/08/12 11:46:41;;;;;;;6.10;1.58;;;;;;;28.48;27.13;96273.25;5077434;28;20036;-75
2022/08/12 11:49:07;;;;;;;3.42;1.80;;;;;;;29.84;25.95;96270.34;5077967;28;20036;-74
2022/08/12 11:51:34;;;;;;;5.55;1.75;;;;;;;30.01;25.61;96269.16;5079200;28;20024;-74
2022/08/12 11:54:00;;;;;;;2.50;1.52;;;;;;;30.23;25.48;96268.75;5076057;28;20060;-75
2022/08/12 11:56:26;;;;;;;1.73;1.40;;;;;;;30.81;24.39;96266.06;5079821;28;20063;-74
2022/08/12 11:58:54;;;;;;;2.85;1.20;;;;;;;29.94;23.89;96269.47;5079406;28;20028;-74
2022/08/12 12:01:20;;;;;;;2.28;1.30;;;;;;;28.46;25.34;96277.31;5061201;28;20032;-75
2022/08/12 12:03:46;;;;;;;2.92;1.42;;;;;;;29.60;24.40;96258.56;5073297;28;20504;-75
2022/08/12 12:06:14;;;;;;;3.88;1.27;;;;;;;30.42;24.34;96263.44;5077521;28;20040;-75
2022/08/12 12:08:40;;;;;;;3.53;1.52;;;;;;;30.92;23.94;96258.59;5053528;28;20048;-76
2022/08/12 12:11:06;;;;;;;4.70;1.52;;;;;;;30.89;24.01;96256.50;5079464;28;20521;-75
2022/08/12 12:13:32;;;;;;;2.33;1.40;;;;;;;28.83;26.12;96260.72;5076240;28;20083;-76
2022/08/12 12:15:59;;;;;;;2.22;1.42;;;;;;;29.02;26.04;96258.28;5077233;28;20036;-76
2022/08/12 12:18:26;;;;;;;3.05;1.63;;;;;;;29.02;26.18;96259.09;5056861;28;20035;-75
2022/08/12 12:20:56;;;;;;;3.97;1.70;;;;;;;29.01;25.59;96256.66;5071569;28;20032;-75
2022/08/12 12:23:21;;;;;;;3.33;1.33;;;;;;;29.52;24.83;96256.44;5070929;28;20053;-75
2022/08/12 12:25:47;;;;;;;3.47;1.15;;;;;;;29.56;25.11;96247.44;5072156;28;20429;-75
2022/08/12 12:28:14;;;;;;;4.38;1.75;;;;;;;29.42;25.67;96256.50;5070059;28;20048;-75
2022/08/12 12:30:40;;;;;;;3.08;1.20;;;;;;;28.35;26.92;96244.84;5072762;28;20142;-75
2022/08/12 12:33:07;;;;;;;2.58;1.35;;;;;;;28.10;27.25;96244.84;5087478;28;20035;-74
2022/08/12 12:35:33;;;;;;;2.83;1.25;;;;;;;28.46;26.73;96250.25;5069842;28;20158;-74
2022/08/12 12:38:04;;;;;;;2.45;1.20;;;;;;;28.55;26.70;96251.34;5070938;28;20024;-75
2022/08/12 12:40:31;;;;;;;1.98;1.15;;;;;;;27.42;27.58;96251.19;5073382;28;20035;-74
2022/08/12 12:42:58;;;;;;;4.55;1.33;;;;;;;27.27;27.44;96251.97;5073693;28;20101;-74
2022/08/12 12:45:24;;;;;;;1.98;1.30;;;;;;;28.26;26.58;96240.25;5077172;28;20036;-74
2022/08/12 12:48:02;;;;;;;3.20;1.98;;;;;;;29.36;25.53;96236.72;5078430;28;20056;-76
2022/08/12 12:50:35;;;;;;;3.13;1.75;;;;;;;29.96;24.51;96221.19;5080690;28;20021;-75
2022/08/12 12:53:01;;;;;;;2.42;1.60;;;;;;;29.89;24.46;96223.41;5080647;28;20059;-74
2022/08/12 12:55:27;;;;;;;2.17;1.30;;;;;;;29.60;24.68;96226.84;5079589;28;20032;-75
2022/08/12 12:57:53;;;;;;;1.40;1.00;;;;;;;29.04;25.49;96229.00;5082340;28;20036;-75
2022/08/12 13:00:20;;;;;;;3.72;1.20;;;;;;;28.84;25.57;96240.69;5078598;28;20047;-74
2022/08/12 13:02:54;;;;;;;5.80;1.42;;;;;;;28.73;25.89;96242.63;5078237;28;20081;-74
2022/08/12 13:05:24;;;;;;;2.45;1.30;;;;;;;27.92;26.66;96230.78;5060456;28;20067;-75
2022/08/12 13:07:56;;;;;;;2.10;1.10;;;;;;;28.18;25.79;96225.38;5075094;28;20672;-74
2022/08/12 13:10:22;;;;;;;3.72;1.10;;;;;;;28.89;25.09;96235.28;5063154;28;20115;-76
2022/08/12 13:12:51;;;;;;;2.53;1.20;;;;;;;28.98;24.95;96247.16;5082754;28;20083;-75
2022/08/12 13:15:17;;;;;;;4.53;1.40;;;;;;;28.66;24.63;96239.41;5083406;28;20448;-75
2022/08/12 13:17:46;;;;;;;1.98;1.10;;;;;;;29.40;23.53;96231.56;5081908;28;20028;-75
2022/08/12 13:20:13;;;;;;;2.97;1.20;;;;;;;29.34;24.40;96217.22;5082852;28;20839;-75
2022/08/12 13:22:39;;;;;;;3.80;1.23;;;;;;;30.28;23.92;96209.00;5079794;28;20082;-75
2022/08/12 13:25:06;;;;;;;2.47;1.40;;;;;;;29.78;24.27;96224.59;5083066;28;20035;-75
2022/08/12 13:27:46;;;;;;;2.28;1.10;;;;;;;30.20;23.48;96215.88;5082114;28;20024;-75